Time;durP1;ratioP1;P1;durP2;ratioP2;P2;SDS_P1;SDS_P2;PMS_P1;PMS_P2;Temp;Humidity;BMP_temperature;BMP_pressure;BME280_temperature;BME280_humidity;BME280_pressure;Samples;Min_cycle;Max_cycle;Signal;HPM_P1;HPM_P2
2023/06/14 00:00:11;;;;;;;7.90;5.60;;;;;;;15.50;54.31;151180.00;5064403;28;20067;-69
2023/06/14 00:02:39;;;;;;;8.68;5.68;;;;;;;15.42;54.66;151160.69;5066904;28;20096;-69
2023/06/14 00:05:07;;;;;;;7.82;5.22;;;;;;;15.44;55.32;151165.81;5066863;28;20033;-70
2023/06/14 00:07:35;;;;;;;8.85;6.00;;;;;;;15.38;55.55;151150.41;5066713;28;20372;-69
2023/06/14 00:10:02;;;;;;;9.35;5.78;;;;;;;15.33;55.79;151138.84;5066395;28;20032;-68
2023/06/14 00:12:28;;;;;;;8.82;5.90;;;;;;;15.29;55.26;151128.53;5052738;28;20025;-69
2023/06/14 00:14:54;;;;;;;10.38;5.90;;;;;;;15.32;55.32;151134.91;5061700;28;20041;-70
2023/06/14 00:17:20;;;;;;;8.57;5.65;;;;;;;15.24;55.89;151115.63;5046862;28;20066;-70
2023/06/14 00:19:46;;;;;;;9.60;5.40;;;;;;;15.15;56.02;151092.50;5053835;28;20317;-72
2023/06/14 00:22:12;;;;;;;12.15;5.90;;;;;;;15.04;57.08;151064.19;5066655;28;20088;-72
2023/06/14 00:24:37;;;;;;;9.00;5.85;;;;;;;14.96;56.14;151046.19;5066695;28;20052;-73
2023/06/14 00:27:03;;;;;;;12.00;6.22;;;;;;;15.01;55.94;151057.75;5066670;28;20025;-71
2023/06/14 00:29:29;;;;;;;11.07;5.60;;;;;;;15.04;56.23;151065.47;5066296;28;20205;-71
2023/06/14 00:31:54;;;;;;;7.13;5.40;;;;;;;15.01;56.83;151059.00;5066221;28;20024;-69
2023/06/14 00:34:20;;;;;;;8.95;5.82;;;;;;;14.86;57.23;151020.41;5066064;28;20040;-68
2023/06/14 00:36:45;;;;;;;7.65;5.65;;;;;;;14.89;58.02;151026.84;5066066;28;20036;-69
2023/06/14 00:39:11;;;;;;;10.45;6.13;;;;;;;14.91;57.95;151032.03;5065655;28;20028;-69
2023/06/14 00:41:37;;;;;;;10.98;5.65;;;;;;;14.81;57.94;151008.84;5066516;28;20044;-70
2023/06/14 00:44:03;;;;;;;9.13;5.60;;;;;;;14.72;58.54;150985.72;5066800;28;20214;-69
2023/06/14 00:46:29;;;;;;;7.97;5.50;;;;;;;14.64;58.76;150965.13;5064514;28;20021;-70
2023/06/14 00:48:58;;;;;;;12.65;5.95;;;;;;;14.43;58.79;150913.59;5066436;28;20029;-70
2023/06/14 00:51:24;;;;;;;8.25;5.93;;;;;;;14.46;59.25;150920.03;5044810;28;20102;-69
2023/06/14 00:53:51;;;;;;;11.30;6.20;;;;;;;14.24;58.22;150866.03;5061811;28;20365;-68
2023/06/14 00:56:16;;;;;;;9.43;5.40;;;;;;;14.44;59.26;150914.91;5065806;28;20345;-69
2023/06/14 00:58:43;;;;;;;8.93;5.88;;;;;;;14.39;59.60;150902.03;5066038;28;20024;-68
2023/06/14 01:01:09;;;;;;;9.88;5.80;;;;;;;14.46;59.93;150920.03;5065245;28;20028;-69
2023/06/14 01:03:34;;;;;;;11.95;5.35;;;;;;;14.42;59.83;150911.06;5065747;28;20369;-68
2023/06/14 01:06:14;;;;;;;9.25;5.47;;;;;;;14.33;59.80;150889.16;5064629;28;20033;-70
2023/06/14 01:09:00;;;;;;;12.50;5.82;;;;;;;14.32;60.12;150886.63;5061117;28;20079;-69
2023/06/14 01:11:31;;;;;;;17.35;6.13;;;;;;;14.34;59.45;150890.47;5057686;28;20249;-72
2023/06/14 01:14:02;;;;;;;8.25;5.85;;;;;;;14.30;60.37;150881.44;5065494;28;20055;-72
2023/06/14 01:16:29;;;;;;;10.82;6.07;;;;;;;14.28;59.55;150876.31;5065321;28;20032;-71
2023/06/14 01:18:56;;;;;;;8.70;6.00;;;;;;;14.27;59.28;150872.47;5065321;28;20056;-71
2023/06/14 01:21:25;;;;;;;10.50;5.55;;;;;;;14.15;59.71;150842.84;5065392;28;20048;-71
2023/06/14 01:23:53;;;;;;;10.02;5.82;;;;;;;14.38;60.01;150899.44;5064335;28;20024;-71
2023/06/14 01:26:22;;;;;;;10.82;5.53;;;;;;;14.30;59.80;150881.44;5065164;28;20199;-71
2023/06/14 01:28:50;;;;;;;11.95;6.40;;;;;;;14.27;60.10;150873.72;5065393;28;20344;-71
2023/06/14 01:31:23;;;;;;;8.18;5.28;;;;;;;14.33;59.72;150887.88;5062743;28;20092;-71
2023/06/14 01:33:53;;;;;;;14.05;5.63;;;;;;;14.43;59.99;150912.31;5045397;28;20025;-71
2023/06/14 01:36:19;;;;;;;10.73;6.25;;;;;;;14.45;59.11;150917.44;5056530;28;20029;-69
2023/06/14 01:38:48;;;;;;;18.23;5.95;;;;;;;14.40;59.99;150905.88;5059816;28;20091;-70
2023/06/14 01:41:15;;;;;;;10.80;6.00;;;;;;;14.41;60.22;150908.47;5064710;28;20078;-70
2023/06/14 01:43:42;;;;;;;10.18;6.18;;;;;;;14.43;59.79;150912.31;5060328;28;20383;-70
2023/06/14 01:46:09;;;;;;;12.30;5.80;;;;;;;14.44;60.26;150914.91;5045902;28;20036;-70
2023/06/14 01:48:35;;;;;;;11.75;6.47;;;;;;;14.44;60.22;150914.91;5065062;28;20028;-70
2023/06/14 01:51:01;;;;;;;10.85;6.95;;;;;;;14.43;60.86;150912.31;5063843;28;20078;-70
2023/06/14 01:53:26;;;;;;;10.82;6.70;;;;;;;14.45;60.70;150917.44;5064750;28;20075;-70
2023/06/14 01:55:54;;;;;;;12.40;6.13;;;;;;;14.44;60.52;150914.91;5064945;28;20075;-69
2023/06/14 01:58:19;;;;;;;11.38;5.90;;;;;;;14.43;60.91;150913.59;5064568;28;20029;-71
2023/06/14 02:00:45;;;;;;;10.45;6.78;;;;;;;14.47;60.42;150923.88;5064551;28;20088;-71
2023/06/14 02:03:12;;;;;;;10.40;6.43;;;;;;;14.53;60.59;150936.75;5064370;28;20024;-70
2023/06/14 02:05:39;;;;;;;12.75;6.32;;;;;;;14.56;60.73;150944.47;5064554;28;20025;-70
2023/06/14 02:08:05;;;;;;;10.07;7.07;;;;;;;14.52;60.42;150934.19;5064303;28;20075;-70
2023/06/14 02:10:30;;;;;;;10.02;7.15;;;;;;;14.58;60.98;150949.59;5064561;28;20045;-70
2023/06/14 02:12:56;;;;;;;10.38;6.10;;;;;;;14.44;61.51;150914.91;5064272;28;20021;-67
2023/06/14 02:15:21;;;;;;;8.38;6.55;;;;;;;14.51;60.93;150932.91;5064128;28;20029;-71
2023/06/14 02:17:47;;;;;;;8.70;6.20;;;;;;;14.58;60.97;150949.59;5064203;28;20339;-69
2023/06/14 02:20:13;;;;;;;11.40;7.00;;;;;;;14.69;60.99;150977.94;5055837;28;20024;-70
2023/06/14 02:22:39;;;;;;;11.73;6.10;;;;;;;14.73;61.38;150988.25;5043348;28;20025;-71
2023/06/14 02:25:06;;;;;;;11.07;6.07;;;;;;;14.89;60.87;151026.84;5044637;28;20025;-71
2023/06/14 02:27:31;;;;;;;10.77;6.30;;;;;;;14.96;60.92;151046.19;5064337;28;20336;-71
2023/06/14 02:29:57;;;;;;;9.48;6.20;;;;;;;14.98;60.31;151051.31;5063164;28;20033;-72
2023/06/14 02:32:22;;;;;;;8.90;6.22;;;;;;;14.96;60.14;151044.84;5066017;28;20033;-71
2023/06/14 02:34:49;;;;;;;11.13;6.57;;;;;;;15.00;60.36;151056.44;5066818;28;20035;-72
2023/06/14 02:37:16;;;;;;;8.98;6.32;;;;;;;15.00;61.08;151055.16;5063755;28;20041;-69
2023/06/14 02:39:41;;;;;;;12.45;6.15;;;;;;;14.93;61.00;151038.41;5064011;28;20387;-69
2023/06/14 02:42:07;;;;;;;11.25;6.40;;;;;;;14.96;60.54;151044.84;5064267;28;20033;-68
2023/06/14 02:44:33;;;;;;;11.95;6.50;;;;;;;15.07;60.67;151071.91;5066085;28;20021;-69
2023/06/14 02:47:00;;;;;;;11.70;6.80;;;;;;;15.06;60.37;151069.31;5064430;28;20064;-70
2023/06/14 02:49:26;;;;;;;10.77;6.68;;;;;;;15.13;60.38;151087.31;5063785;28;20040;-71
2023/06/14 02:51:51;;;;;;;12.90;6.85;;;;;;;15.21;60.07;151106.66;5063299;28;20084;-70
2023/06/14 02:54:17;;;;;;;13.88;8.52;;;;;;;15.23;59.89;151113.06;5063848;28;20078;-70
2023/06/14 02:56:43;;;;;;;16.80;8.43;;;;;;;15.19;59.79;151104.06;5063568;28;20283;-70
2023/06/14 02:59:09;;;;;;;18.48;7.95;;;;;;;15.24;59.82;151115.63;5063145;28;20032;-69
2023/06/14 03:01:35;;;;;;;13.32;7.45;;;;;;;15.32;59.54;151136.25;5063406;28;20033;-71
2023/06/14 03:04:03;;;;;;;14.38;7.22;;;;;;;15.35;60.03;151142.69;5063310;28;20051;-69
2023/06/14 03:06:33;;;;;;;22.80;9.65;;;;;;;15.33;60.23;151138.84;5063404;28;20060;-67
2023/06/14 03:09:04;;;;;;;11.43;7.80;;;;;;;15.41;59.41;151158.13;5063277;28;20053;-68
2023/06/14 03:11:33;;;;;;;15.40;7.70;;;;;;;15.54;58.36;151190.28;5063459;28;20021;-68
2023/06/14 03:14:00;;;;;;;12.20;7.28;;;;;;;15.59;59.34;151203.19;5063240;28;20351;-69
2023/06/14 03:16:28;;;;;;;11.55;7.90;;;;;;;15.71;58.74;151234.03;5063563;28;20037;-67
2023/06/14 03:18:54;;;;;;;14.38;8.02;;;;;;;15.90;58.64;151280.44;5063225;28;20225;-69
2023/06/14 03:21:22;;;;;;;13.63;7.97;;;;;;;16.17;57.11;151347.41;5063189;28;20031;-70
2023/06/14 03:23:48;;;;;;;15.52;7.95;;;;;;;16.50;56.15;151429.81;5062654;28;20036;-70
2023/06/14 03:26:17;;;;;;;22.00;8.40;;;;;;;16.57;55.81;151447.84;5063284;28;20040;-70
2023/06/14 03:28:45;;;;;;;18.55;8.10;;;;;;;16.53;56.26;151437.56;5066238;28;20088;-69
2023/06/14 03:31:10;;;;;;;11.82;8.00;;;;;;;16.50;56.46;151431.16;5070004;28;20028;-70
2023/06/14 03:33:36;;;;;;;14.32;8.27;;;;;;;16.52;56.80;151435.00;5070118;28;20081;-69
2023/06/14 03:36:02;;;;;;;12.15;8.75;;;;;;;16.69;55.56;151478.78;5068871;28;20028;-70
2023/06/14 03:38:28;;;;;;;14.68;8.77;;;;;;;16.71;55.39;151483.91;5069602;28;20021;-70
2023/06/14 03:40:54;;;;;;;15.10;9.70;;;;;;;16.73;55.59;151489.09;5068202;28;20047;-69
2023/06/14 03:43:19;;;;;;;11.55;7.80;;;;;;;16.73;56.21;151487.78;5069664;28;20071;-73
2023/06/14 03:45:45;;;;;;;14.90;7.95;;;;;;;16.70;55.65;151480.06;5070313;28;20032;-70
2023/06/14 03:48:11;;;;;;;18.52;10.75;;;;;;;16.66;54.75;151471.06;5069669;28;20032;-72
2023/06/14 03:50:37;;;;;;;14.18;9.43;;;;;;;16.82;54.74;151509.72;5069658;28;20021;-69
2023/06/14 03:53:04;;;;;;;13.82;9.65;;;;;;;17.05;54.69;151567.75;5069789;28;20047;-70
2023/06/14 03:55:31;;;;;;;16.15;9.02;;;;;;;17.19;53.94;151603.81;5069577;28;20068;-70
2023/06/14 03:57:57;;;;;;;13.65;9.13;;;;;;;17.17;54.99;151597.38;5056656;28;20025;-70
2023/06/14 04:00:23;;;;;;;13.52;8.80;;;;;;;17.12;54.54;151584.50;5060596;28;20043;-67
2023/06/14 04:02:48;;;;;;;17.00;9.55;;;;;;;17.10;54.87;151579.34;5069404;28;20024;-69
2023/06/14 04:05:16;;;;;;;15.10;9.18;;;;;;;17.07;54.71;151574.19;5069280;28;20031;-69
2023/06/14 04:07:44;;;;;;;13.65;7.93;;;;;;;17.06;55.05;151570.34;5069592;28;20079;-68
2023/06/14 04:10:13;;;;;;;11.10;7.60;;;;;;;16.98;54.92;151549.72;5069543;28;20041;-68
2023/06/14 04:12:39;;;;;;;11.52;7.63;;;;;;;17.07;55.16;151574.19;5068270;28;20051;-68
2023/06/14 04:15:06;;;;;;;17.25;7.90;;;;;;;17.07;54.73;151574.19;5068395;28;20035;-68
2023/06/14 04:17:32;;;;;;;14.30;7.70;;;;;;;17.17;55.53;151598.69;5069204;28;20028;-68
2023/06/14 04:20:00;;;;;;;14.90;7.18;;;;;;;17.24;55.08;151615.41;5069121;28;20055;-70
2023/06/14 04:22:28;;;;;;;13.90;6.38;;;;;;;17.31;54.60;151632.19;5069216;28;20043;-68
2023/06/14 04:24:57;;;;;;;9.93;6.38;;;;;;;17.43;54.40;151664.41;5049556;28;20036;-67
2023/06/14 04:27:25;;;;;;;14.45;6.50;;;;;;;17.42;53.90;151661.81;5067452;28;20041;-68
2023/06/14 04:29:56;;;;;;;10.43;5.63;;;;;;;17.54;53.67;151690.16;5068892;28;20040;-68
2023/06/14 04:32:25;;;;;;;10.38;6.30;;;;;;;17.45;52.13;151667.00;5069184;28;20056;-68
2023/06/14 04:34:53;;;;;;;12.98;6.53;;;;;;;17.63;54.21;151713.38;5069327;28;20107;-68
2023/06/14 04:37:20;;;;;;;14.30;5.97;;;;;;;17.66;53.27;151719.81;5068985;28;20084;-68
2023/06/14 04:39:47;;;;;;;10.35;5.78;;;;;;;17.76;54.39;151746.88;5066158;28;20032;-68
2023/06/14 04:42:14;;;;;;;9.07;5.43;;;;;;;17.89;52.29;151779.13;5065309;28;20054;-68
2023/06/14 04:44:41;;;;;;;12.90;5.88;;;;;;;17.96;51.80;151794.63;5065637;28;20020;-67
2023/06/14 04:47:07;;;;;;;6.63;5.03;;;;;;;18.10;51.72;151832.03;5065567;28;20056;-67
2023/06/14 04:49:33;;;;;;;10.80;5.45;;;;;;;18.08;52.92;151826.88;5065694;28;20039;-67
2023/06/14 04:52:01;;;;;;;9.73;5.30;;;;;;;18.12;50.85;151835.91;5065556;28;20033;-67
2023/06/14 04:54:27;;;;;;;7.60;5.07;;;;;;;18.19;51.18;151853.97;5061168;28;20029;-68
2023/06/14 04:56:55;;;;;;;11.13;6.85;;;;;;;18.31;51.36;151882.34;5045906;28;20037;-68
2023/06/14 04:59:22;;;;;;;9.77;5.00;;;;;;;18.47;51.25;151923.63;5054677;28;20047;-69
2023/06/14 05:01:49;;;;;;;8.07;4.75;;;;;;;18.64;50.51;151966.19;5060441;28;20087;-68
2023/06/14 05:04:16;;;;;;;25.23;6.93;;;;;;;18.78;50.49;152002.31;5045474;28;20194;-67
2023/06/14 05:06:44;;;;;;;38.72;6.45;;;;;;;18.80;50.07;152006.19;5065344;28;20110;-68
2023/06/14 05:09:14;;;;;;;9.40;4.78;;;;;;;18.88;50.48;152026.84;5065154;28;20086;-70
2023/06/14 05:11:42;;;;;;;10.35;4.78;;;;;;;19.08;49.62;152077.22;5065442;28;20345;-70
2023/06/14 05:14:07;;;;;;;14.65;4.55;;;;;;;19.10;47.98;152081.06;5064977;28;20040;-69
2023/06/14 05:16:33;;;;;;;8.35;4.38;;;;;;;19.33;47.64;152137.84;5064082;28;20033;-70
2023/06/14 05:18:58;;;;;;;7.88;4.47;;;;;;;19.49;48.32;152179.13;5065220;28;20067;-68
2023/06/14 05:21:24;;;;;;;10.20;4.72;;;;;;;19.53;48.06;152189.47;5065135;28;20025;-67
2023/06/14 05:23:51;;;;;;;16.85;5.28;;;;;;;19.62;47.83;152212.72;5063765;28;20047;-68
2023/06/14 05:26:17;;;;;;;11.25;4.90;;;;;;;19.85;46.62;152269.53;5065146;28;20032;-70
2023/06/14 05:28:42;;;;;;;6.88;4.57;;;;;;;19.85;46.25;152268.25;5064870;28;20039;-68
2023/06/14 05:31:08;;;;;;;19.02;5.70;;;;;;;19.80;47.27;152256.66;5048344;28;20075;-68
2023/06/14 05:33:33;;;;;;;22.25;4.53;;;;;;;19.95;46.39;152295.41;5064417;28;20344;-68
2023/06/14 05:35:59;;;;;;;6.85;4.43;;;;;;;19.93;45.97;152288.94;5064649;28;20028;-68
2023/06/14 05:38:25;;;;;;;6.95;4.32;;;;;;;20.05;45.71;152318.59;5064925;28;20025;-69
2023/06/14 05:40:51;;;;;;;6.97;4.20;;;;;;;20.15;45.66;152345.75;5064693;28;20033;-69
2023/06/14 05:43:16;;;;;;;8.18;4.28;;;;;;;20.17;45.69;152350.91;5064637;28;20033;-68
2023/06/14 05:45:42;;;;;;;12.27;4.35;;;;;;;20.36;45.18;152397.38;5064728;28;20043;-68
2023/06/14 05:48:07;;;;;;;6.53;5.53;;;;;;;20.31;45.88;152385.78;5064384;28;20051;-68
2023/06/14 05:50:33;;;;;;;8.65;4.13;;;;;;;20.29;43.97;152380.56;5064422;28;20087;-69
2023/06/14 05:52:59;;;;;;;9.25;4.00;;;;;;;20.41;44.38;152410.31;5062794;28;20060;-72
2023/06/14 05:55:25;;;;;;;6.47;3.92;;;;;;;20.49;43.41;152431.00;5062968;28;20028;-68
2023/06/14 05:57:50;;;;;;;6.05;3.80;;;;;;;20.58;43.03;152452.94;5063165;28;20236;-70
2023/06/14 06:00:16;;;;;;;7.40;3.75;;;;;;;20.79;43.95;152504.63;5062734;28;20078;-69
2023/06/14 06:02:45;;;;;;;10.23;3.22;;;;;;;20.94;43.58;152542.13;5064152;28;20025;-70
2023/06/14 06:05:12;;;;;;;6.55;3.53;;;;;;;21.05;42.66;152570.56;5063671;28;20025;-67
2023/06/14 06:07:40;;;;;;;5.47;3.13;;;;;;;21.10;40.51;152582.19;5062643;28;20273;-68
2023/06/14 06:10:06;;;;;;;5.45;3.22;;;;;;;21.01;40.46;152560.22;5063902;28;20043;-67
2023/06/14 06:12:32;;;;;;;5.63;3.50;;;;;;;21.23;40.52;152614.47;5064253;28;20040;-68
2023/06/14 06:14:59;;;;;;;6.28;3.22;;;;;;;21.28;41.52;152627.44;5063886;28;20075;-67
2023/06/14 06:17:25;;;;;;;7.22;3.15;;;;;;;21.34;38.85;152642.91;5063898;28;20199;-68
2023/06/14 06:19:51;;;;;;;4.53;3.22;;;;;;;21.39;38.07;152655.81;5063942;28;20088;-69
2023/06/14 06:22:17;;;;;;;5.82;3.10;;;;;;;21.50;38.41;152682.97;5063859;28;20040;-69
2023/06/14 06:24:42;;;;;;;4.53;2.60;;;;;;;21.44;37.24;152668.75;5060029;28;20051;-67
2023/06/14 06:27:08;;;;;;;4.30;2.70;;;;;;;21.37;37.92;152650.66;5061071;28;20032;-69
2023/06/14 06:29:34;;;;;;;3.42;2.72;;;;;;;21.53;38.23;152692.09;5054005;28;20213;-69
2023/06/14 06:32:00;;;;;;;5.22;3.00;;;;;;;21.65;38.89;152721.81;5063321;28;20135;-68
2023/06/14 06:34:26;;;;;;;3.55;2.53;;;;;;;21.49;36.04;152681.69;5063280;28;20345;-68
2023/06/14 06:36:52;;;;;;;5.20;2.88;;;;;;;21.40;36.01;152658.41;5063548;28;20048;-69
2023/06/14 06:39:17;;;;;;;5.55;2.42;;;;;;;21.34;35.94;152644.19;5063489;28;20040;-68
2023/06/14 06:41:43;;;;;;;6.20;2.65;;;;;;;21.52;36.51;152689.50;5063573;28;20024;-68
2023/06/14 06:44:10;;;;;;;3.15;2.75;;;;;;;21.54;35.92;152694.63;5063571;28;20309;-69
2023/06/14 06:46:39;;;;;;;6.03;3.22;;;;;;;21.19;36.58;152606.72;5063394;28;20040;-71
2023/06/14 06:49:06;;;;;;;6.25;3.28;;;;;;;21.38;36.77;152653.25;5063349;28;20025;-68
2023/06/14 06:51:31;;;;;;;4.30;2.55;;;;;;;21.57;34.89;152699.84;5063520;28;20025;-67
2023/06/14 06:53:58;;;;;;;3.90;2.80;;;;;;;21.40;35.22;152658.41;5063211;28;20261;-67
2023/06/14 06:56:24;;;;;;;7.55;2.83;;;;;;;21.36;35.35;152649.38;5063730;28;20025;-67
2023/06/14 06:58:52;;;;;;;5.45;2.85;;;;;;;21.72;36.08;152739.91;5062997;28;20033;-68
2023/06/14 07:01:19;;;;;;;3.28;2.80;;;;;;;21.79;35.88;152756.72;5063065;28;20021;-69
2023/06/14 07:03:45;;;;;;;6.90;2.90;;;;;;;21.89;35.22;152781.28;5050969;28;20096;-69
2023/06/14 07:06:11;;;;;;;6.85;3.00;;;;;;;21.99;35.54;152805.81;5057345;28;20669;-69
2023/06/14 07:08:38;;;;;;;6.05;2.90;;;;;;;22.10;34.81;152834.25;5061663;28;20029;-69
2023/06/14 07:11:04;;;;;;;5.78;3.17;;;;;;;21.96;35.12;152798.06;5063083;28;20037;-69
2023/06/14 07:13:31;;;;;;;6.25;3.00;;;;;;;21.75;34.99;152746.38;5061744;28;20031;-68
2023/06/14 07:15:59;;;;;;;9.23;3.25;;;;;;;21.98;35.68;152803.25;5061923;28;20082;-69
2023/06/14 07:18:25;;;;;;;4.43;3.05;;;;;;;22.28;35.72;152879.53;5063101;28;20035;-70
2023/06/14 07:20:51;;;;;;;5.88;2.95;;;;;;;22.38;36.27;152905.44;5061329;28;20021;-69
2023/06/14 07:23:17;;;;;;;4.95;2.90;;;;;;;22.39;35.62;152906.75;5050863;28;20040;-68
2023/06/14 07:25:43;;;;;;;6.20;3.17;;;;;;;22.51;35.93;152937.78;5062765;28;20286;-69
2023/06/14 07:28:08;;;;;;;4.38;2.72;;;;;;;22.49;35.40;152932.63;5062626;28;20078;-69
2023/06/14 07:30:35;;;;;;;4.75;3.05;;;;;;;22.48;35.72;152930.00;5062896;28;20028;-67
2023/06/14 07:33:00;;;;;;;4.18;3.08;;;;;;;22.31;35.05;152886.00;5062670;28;20257;-67
2023/06/14 07:35:26;;;;;;;5.97;3.00;;;;;;;22.44;35.71;152919.66;5062771;28;20032;-67
2023/06/14 07:37:51;;;;;;;7.30;3.20;;;;;;;22.65;35.83;152971.44;5061479;28;20032;-66
2023/06/14 07:40:17;;;;;;;5.13;2.90;;;;;;;22.63;35.28;152966.22;5062454;28;20071;-68
2023/06/14 07:42:42;;;;;;;3.17;2.40;;;;;;;22.87;35.99;153028.34;5061250;28;20021;-67
2023/06/14 07:45:08;;;;;;;4.72;2.97;;;;;;;22.80;35.10;153010.19;5062431;28;20056;-65
2023/06/14 07:47:34;;;;;;;3.35;2.97;;;;;;;22.47;34.60;152927.41;5059182;28;20269;-66
2023/06/14 07:50:00;;;;;;;5.25;3.00;;;;;;;22.39;34.79;152906.75;5047932;28;20059;-65
2023/06/14 07:52:25;;;;;;;6.25;3.25;;;;;;;22.40;34.56;152909.31;5062794;28;20096;-68
2023/06/14 07:54:51;;;;;;;6.57;3.35;;;;;;;22.26;34.64;152873.06;5062709;28;20314;-68
2023/06/14 07:57:16;;;;;;;4.82;3.05;;;;;;;22.63;34.72;152966.22;5061294;28;20033;-69
2023/06/14 07:59:42;;;;;;;7.60;3.40;;;;;;;22.48;33.89;152928.75;5062423;28;20029;-67
2023/06/14 08:02:07;;;;;;;5.57;3.00;;;;;;;22.56;33.81;152950.72;5062153;28;20138;-68
2023/06/14 08:04:33;;;;;;;6.10;3.10;;;;;;;22.79;34.41;153007.63;5062790;28;20041;-67
2023/06/14 08:07:00;;;;;;;5.82;3.20;;;;;;;22.97;34.99;153051.59;5062750;28;20082;-67
2023/06/14 08:09:27;;;;;;;7.00;3.20;;;;;;;23.06;34.77;153074.91;5062386;28;20047;-67
2023/06/14 08:11:53;;;;;;;4.22;2.90;;;;;;;23.07;34.75;153078.78;5063010;28;20029;-68
2023/06/14 08:14:18;;;;;;;4.65;3.10;;;;;;;23.09;34.30;153083.94;5062851;28;20029;-68
2023/06/14 08:16:44;;;;;;;3.35;3.00;;;;;;;23.03;33.12;153067.13;5066457;28;20044;-68
2023/06/14 08:19:10;;;;;;;6.88;2.95;;;;;;;22.99;33.51;153056.75;5066158;28;20364;-68
2023/06/14 08:21:36;;;;;;;6.50;3.30;;;;;;;23.04;33.35;153069.72;5055640;28;20038;-70
2023/06/14 08:24:02;;;;;;;3.50;3.17;;;;;;;22.99;32.83;153058.09;5059433;28;20063;-69
2023/06/14 08:26:31;;;;;;;3.72;3.08;;;;;;;22.95;32.61;153046.44;5065436;28;20040;-68
2023/06/14 08:28:57;;;;;;;5.50;3.08;;;;;;;22.91;32.32;153037.38;5054306;28;20033;-68
2023/06/14 08:31:24;;;;;;;3.38;3.08;;;;;;;22.99;32.93;153058.09;5055089;28;20045;-68
2023/06/14 08:33:50;;;;;;;6.60;3.10;;;;;;;23.03;32.73;153067.13;5065860;28;20037;-68
2023/06/14 08:36:16;;;;;;;3.72;3.08;;;;;;;23.16;33.14;153099.50;5062152;28;20024;-69
2023/06/14 08:38:41;;;;;;;5.22;2.92;;;;;;;22.96;33.13;153049.00;5061327;28;20326;-68
2023/06/14 08:41:11;;;;;;;5.20;2.70;;;;;;;23.01;33.94;153061.97;5059538;28;20016;-68
2023/06/14 08:43:37;;;;;;;4.28;3.47;;;;;;;23.09;33.42;153082.69;5062679;28;20325;-68
2023/06/14 08:46:04;;;;;;;10.07;3.47;;;;;;;23.07;32.00;153078.78;5065646;28;20033;-70
2023/06/14 08:48:33;;;;;;;4.88;2.95;;;;;;;22.75;31.72;152997.28;5064619;28;20027;-68
2023/06/14 08:51:04;;;;;;;4.38;3.13;;;;;;;23.12;32.18;153089.19;5064298;28;20191;-69
2023/06/14 08:53:33;;;;;;;7.07;3.63;;;;;;;22.96;32.66;153050.34;5065542;28;20028;-68
2023/06/14 08:56:04;;;;;;;3.88;3.20;;;;;;;23.07;33.64;153078.78;5058398;28;20039;-71
2023/06/14 08:58:31;;;;;;;6.30;3.25;;;;;;;23.46;34.12;153175.88;5065511;28;20325;-67
2023/06/14 09:01:03;;;;;;;6.03;3.75;;;;;;;23.24;33.47;153120.22;5065663;28;20313;-68
2023/06/14 09:03:30;;;;;;;;;;;;;;;23.25;33.03;153124.09;5066058;28;20040;-68
2023/06/14 09:06:00;;;;;;;5.82;3.08;;;;;;;23.57;33.25;153203.03;5063942;28;20015;-69
2023/06/14 09:08:30;;;;;;;4.20;3.25;;;;;;;23.52;33.44;153190.13;5065509;28;20037;-69
2023/06/14 09:10:56;;;;;;;5.10;3.38;;;;;;;23.86;33.33;153275.56;5065336;28;20258;-68
2023/06/14 09:13:21;;;;;;;5.82;3.67;;;;;;;23.98;33.91;153306.66;5064466;28;20036;-69
2023/06/14 09:15:47;;;;;;;7.32;3.50;;;;;;;23.81;32.58;153263.88;5063477;28;20351;-68
2023/06/14 09:18:12;;;;;;;4.65;3.03;;;;;;;23.75;32.82;153248.34;5059214;28;20075;-69
2023/06/14 09:20:38;;;;;;;4.07;3.40;;;;;;;23.33;32.83;153143.53;5065023;28;20017;-67
2023/06/14 09:23:05;;;;;;;4.10;3.20;;;;;;;23.70;32.78;153236.72;5064909;28;20029;-67
2023/06/14 09:25:30;;;;;;;4.88;3.10;;;;;;;23.90;33.32;153287.25;5064899;28;20079;-68
2023/06/14 09:27:56;;;;;;;4.72;3.33;;;;;;;23.88;33.20;153282.03;5046571;28;20317;-68
2023/06/14 09:30:21;;;;;;;4.88;3.20;;;;;;;23.81;31.99;153263.88;5064770;28;20047;-69
2023/06/14 09:32:47;;;;;;;5.10;3.33;;;;;;;24.09;31.74;153333.84;5058356;28;20047;-70
2023/06/14 09:35:17;;;;;;;4.18;3.13;;;;;;;24.19;32.25;153359.72;5057645;28;20250;-68
2023/06/14 09:37:44;;;;;;;9.07;3.92;;;;;;;24.10;32.06;153336.44;5063664;28;20056;-69
2023/06/14 09:40:10;;;;;;;6.15;4.05;;;;;;;24.40;32.34;153411.50;5063882;28;20032;-70
2023/06/14 09:42:36;;;;;;;3.63;3.20;;;;;;;24.05;32.21;153323.47;5064385;28;20099;-68
2023/06/14 09:45:03;;;;;;;4.05;3.03;;;;;;;24.08;32.21;153331.25;5064658;28;20021;-69
2023/06/14 09:47:29;;;;;;;4.65;3.15;;;;;;;23.60;31.96;153210.78;5059086;28;20092;-70
2023/06/14 09:49:55;;;;;;;5.45;3.70;;;;;;;23.95;33.61;153298.88;5063313;28;20032;-68
2023/06/14 09:52:22;;;;;;;6.60;3.60;;;;;;;23.82;32.15;153266.47;5064305;28;20067;-68
2023/06/14 09:54:51;;;;;;;5.18;3.22;;;;;;;23.89;32.42;153283.38;5064360;28;20365;-68
2023/06/14 09:57:21;;;;;;;5.80;3.28;;;;;;;23.73;32.59;153243.19;5064179;28;20037;-68
2023/06/14 09:59:47;;;;;;;7.57;3.30;;;;;;;23.36;32.17;153149.97;5056292;28;20025;-68
2023/06/14 10:02:25;;;;;;;6.93;3.95;;;;;;;23.42;32.71;153165.53;5060954;28;20309;-67
2023/06/14 10:05:08;;;;;;;5.18;3.42;;;;;;;23.52;32.00;153190.13;5049475;28;20314;-66
2023/06/14 10:07:48;;;;;;;5.18;3.45;;;;;;;23.83;31.72;153267.75;5064080;28;20178;-68
2023/06/14 10:10:14;;;;;;;5.43;3.72;;;;;;;23.90;31.31;153285.91;5064130;28;20033;-68
2023/06/14 10:12:40;;;;;;;7.95;3.42;;;;;;;24.04;31.48;153320.88;5064121;28;20039;-68
2023/06/14 10:15:09;;;;;;;7.78;3.33;;;;;;;23.83;31.70;153269.06;5063710;28;20025;-67
2023/06/14 10:17:44;;;;;;;6.38;3.63;;;;;;;23.93;32.07;153293.72;5062928;28;20052;-69
2023/06/14 10:20:31;;;;;;;5.28;3.42;;;;;;;24.06;32.33;153327.38;5063754;28;20043;-68
2023/06/14 10:23:07;;;;;;;5.32;3.10;;;;;;;24.19;32.78;153359.72;5063946;28;20088;-69
2023/06/14 10:25:33;;;;;;;4.97;3.53;;;;;;;24.03;31.55;153318.28;5064022;28;20028;-68
2023/06/14 10:28:13;;;;;;;3.10;2.80;;;;;;;23.81;31.62;153263.88;5043994;28;20029;-68
2023/06/14 10:30:39;;;;;;;8.15;3.67;;;;;;;23.93;31.85;153295.00;5061322;28;20112;-69
2023/06/14 10:33:06;;;;;;;7.03;3.50;;;;;;;24.09;32.29;153333.84;5063462;28;20036;-68
2023/06/14 10:35:32;;;;;;;4.78;3.15;;;;;;;24.06;32.56;153326.09;5063833;28;20212;-69
2023/06/14 10:38:11;;;;;;;5.25;3.40;;;;;;;24.31;32.13;153389.50;5056083;28;20037;-68
2023/06/14 10:40:38;;;;;;;7.10;3.13;;;;;;;24.29;32.69;153385.63;5063471;28;20087;-68
2023/06/14 10:43:24;;;;;;;5.03;3.38;;;;;;;24.54;32.94;153447.81;5062313;28;20017;-68
2023/06/14 10:46:13;;;;;;;7.50;3.25;;;;;;;24.58;32.28;153458.13;5063260;28;20036;-69
2023/06/14 10:48:42;;;;;;;3.80;2.97;;;;;;;24.52;31.11;153441.31;5063571;28;20332;-69
2023/06/14 10:51:20;;;;;;;6.00;3.40;;;;;;;24.47;30.96;153429.69;5063218;28;20048;-68
2023/06/14 10:53:50;;;;;;;6.32;3.33;;;;;;;24.25;31.06;153375.25;5063336;28;20031;-68
2023/06/14 10:56:28;;;;;;;8.63;3.97;;;;;;;24.40;31.34;153412.81;5063087;28;20049;-69
2023/06/14 10:58:56;;;;;;;5.07;3.03;;;;;;;24.40;31.25;153411.50;5063365;28;20040;-69
2023/06/14 11:01:36;;;;;;;3.33;3.03;;;;;;;24.34;31.68;153397.25;5063289;28;20067;-68
2023/06/14 11:04:11;;;;;;;4.45;2.97;;;;;;;24.13;31.52;153345.50;5058490;28;20032;-69
2023/06/14 11:06:46;;;;;;;6.43;3.30;;;;;;;24.47;32.41;153429.69;5061705;28;20045;-68
2023/06/14 11:09:37;;;;;;;6.90;3.17;;;;;;;24.57;31.94;153454.25;5056102;28;20044;-69
2023/06/14 11:12:04;;;;;;;5.18;3.17;;;;;;;24.37;31.59;153405.06;5056768;28;20048;-68
2023/06/14 11:14:31;;;;;;;7.30;3.58;;;;;;;24.36;31.97;153401.19;5058489;28;20298;-67
2023/06/14 11:16:56;;;;;;;7.68;3.70;;;;;;;24.37;32.37;153405.06;5046050;28;20451;-68
2023/06/14 11:19:22;;;;;;;13.77;4.22;;;;;;;24.53;32.18;153445.19;5062885;28;20032;-68
2023/06/14 11:21:48;;;;;;;7.40;3.13;;;;;;;24.63;32.05;153469.88;5063066;28;20029;-68